Time;durP1;ratioP1;P1;durP2;ratioP2;P2;SDS_P1;SDS_P2;PMS_P1;PMS_P2;Temp;Humidity;BMP_temperature;BMP_pressure;BME280_temperature;BME280_humidity;BME280_pressure;Samples;Min_cycle;Max_cycle;Signal;HPM_P1;HPM_P2
2023/10/03 00:00:59;;;;;;;6.53;1.23;;;17.30;99.90;;;;;;5096856;28;20088;-74
2023/10/03 00:03:25;;;;;;;0.95;0.93;;;17.30;99.90;;;;;;5097170;28;20399;-74
2023/10/03 00:05:51;;;;;;;1.15;0.95;;;17.30;99.90;;;;;;5097133;28;20044;-75
2023/10/03 00:08:18;;;;;;;1.37;0.97;;;17.20;99.90;;;;;;5096578;28;20153;-74
2023/10/03 00:10:45;;;;;;;0.68;0.63;;;17.20;99.90;;;;;;5096678;28;20032;-74
2023/10/03 00:13:11;;;;;;;;;;;17.20;99.90;;;;;;5096928;28;20048;-75
2023/10/03 00:15:44;;;;;;;1.73;1.08;;;17.20;99.90;;;;;;5096466;28;19926;-74
2023/10/03 00:18:14;;;;;;;2.38;0.68;;;17.20;99.90;;;;;;5096754;28;20127;-73
2023/10/03 00:20:40;;;;;;;1.20;1.05;;;17.20;99.90;;;;;;5096350;28;20498;-72
2023/10/03 00:23:06;;;;;;;2.05;1.23;;;17.20;99.90;;;;;;5096567;28;20039;-73
2023/10/03 00:25:32;;;;;;;0.57;0.57;;;17.10;99.90;;;;;;5095934;28;20028;-72
2023/10/03 00:28:01;;;;;;;0.77;0.77;;;17.10;99.90;;;;;;5078687;28;20048;-73
2023/10/03 00:30:28;;;;;;;1.75;1.23;;;17.10;99.90;;;;;;5096258;28;20066;-73
2023/10/03 00:32:58;;;;;;;1.85;0.93;;;17.10;99.90;;;;;;5096172;28;20050;-72
2023/10/03 00:35:26;;;;;;;1.33;1.10;;;17.00;99.90;;;;;;5095082;28;20040;-72
2023/10/03 00:37:53;;;;;;;0.52;0.52;;;17.10;99.90;;;;;;5096013;28;20092;-72
2023/10/03 00:42:54;;;;;;;2.53;1.10;;;17.00;99.90;;;;;;5095384;28;20439;-73
2023/10/03 00:45:22;;;;;;;1.85;1.42;;;17.00;99.90;;;;;;5095969;28;20032;-73
2023/10/03 00:47:49;;;;;;;1.67;1.55;;;17.00;99.90;;;;;;5095972;28;20040;-73
2023/10/03 00:50:16;;;;;;;0.88;0.85;;;17.00;99.90;;;;;;5095880;28;20093;-73
2023/10/03 00:52:45;;;;;;;1.42;0.95;;;17.00;99.90;;;;;;5095809;28;20040;-72
2023/10/03 00:55:12;;;;;;;1.90;1.67;;;17.00;99.90;;;;;;5096235;28;20043;-72
2023/10/03 00:57:37;;;;;;;0.63;0.60;;;17.00;99.90;;;;;;5095654;28;20036;-73
2023/10/03 01:00:16;;;;;;;1.13;0.83;;;17.00;99.90;;;;;;5095772;28;20113;-73
2023/10/03 01:02:52;;;;;;;1.23;1.13;;;17.00;99.90;;;;;;5095720;28;20121;-73
2023/10/03 01:05:18;;;;;;;1.30;1.20;;;17.00;99.90;;;;;;5095489;28;20047;-73
2023/10/03 01:07:45;;;;;;;2.17;1.00;;;17.00;99.90;;;;;;5095432;28;20059;-72
2023/10/03 01:10:17;;;;;;;2.00;1.63;;;17.00;99.90;;;;;;5095432;28;20127;-74
2023/10/03 01:12:47;;;;;;;2.03;1.52;;;17.00;99.90;;;;;;5094271;28;20052;-72
2023/10/03 01:15:20;;;;;;;2.00;1.23;;;17.00;99.90;;;;;;5095342;28;20063;-72
2023/10/03 01:17:49;;;;;;;1.50;1.30;;;17.00;99.90;;;;;;5095315;28;20044;-72
2023/10/03 01:20:24;;;;;;;2.55;1.45;;;17.00;99.90;;;;;;5095462;28;20479;-71
2023/10/03 01:22:53;;;;;;;1.50;0.98;;;17.00;99.90;;;;;;5095247;28;20157;-72
2023/10/03 01:25:20;;;;;;;1.17;0.95;;;17.00;99.90;;;;;;5095201;28;20105;-72
2023/10/03 01:27:46;;;;;;;1.42;0.95;;;17.00;99.90;;;;;;5095319;28;20122;-73
2023/10/03 01:30:12;;;;;;;4.15;1.88;;;17.00;99.90;;;;;;5094883;28;20043;-72
2023/10/03 01:32:45;;;;;;;1.05;0.82;;;17.00;99.90;;;;;;5094647;28;20051;-73
2023/10/03 01:35:12;;;;;;;2.40;1.48;;;17.00;99.90;;;;;;5095008;28;20036;-72
2023/10/03 01:37:40;;;;;;;1.27;1.05;;;17.00;99.90;;;;;;5095116;28;20039;-72
2023/10/03 01:40:13;;;;;;;1.85;1.42;;;17.00;99.90;;;;;;5095233;28;20142;-72
2023/10/03 01:42:45;;;;;;;1.48;1.35;;;17.00;99.90;;;;;;5094832;28;20054;-73
2023/10/03 01:45:12;;;;;;;1.15;1.05;;;17.00;99.90;;;;;;5094795;28;20040;-73
2023/10/03 01:47:45;;;;;;;2.67;1.98;;;17.00;99.90;;;;;;5094706;28;20122;-73
2023/10/03 01:50:12;;;;;;;1.80;1.70;;;17.00;99.90;;;;;;5094759;28;20093;-72
2023/10/03 01:52:40;;;;;;;3.25;1.52;;;16.90;99.90;;;;;;5094886;28;20067;-73
2023/10/03 01:55:08;;;;;;;1.60;1.33;;;16.90;99.90;;;;;;5094587;28;20119;-71
2023/10/03 01:57:33;;;;;;;1.30;1.13;;;16.90;99.90;;;;;;5094494;28;20036;-74
2023/10/03 01:59:59;;;;;;;1.27;0.87;;;16.90;99.90;;;;;;5094998;28;20128;-73
2023/10/03 02:02:25;;;;;;;1.73;1.63;;;16.90;99.90;;;;;;5094843;28;20047;-73
2023/10/03 02:04:51;;;;;;;1.10;0.90;;;16.90;99.90;;;;;;5094443;28;20065;-73
2023/10/03 02:07:17;;;;;;;;;;;16.80;99.90;;;;;;5094755;28;20051;-71
2023/10/03 02:09:43;;;;;;;3.75;1.92;;;16.90;99.90;;;;;;5094630;28;20267;-72
2023/10/03 02:12:10;;;;;;;0.73;0.70;;;16.80;99.90;;;;;;5094237;28;20051;-73
2023/10/03 02:14:39;;;;;;;1.60;1.50;;;16.80;99.90;;;;;;5094291;28;20046;-73
2023/10/03 02:17:05;;;;;;;0.73;0.68;;;16.80;99.90;;;;;;5094118;28;20032;-72
2023/10/03 02:19:31;;;;;;;1.88;1.23;;;16.80;99.90;;;;;;5094199;28;20055;-73
2023/10/03 02:21:59;;;;;;;2.63;1.57;;;16.80;99.90;;;;;;5094278;28;20044;-73
2023/10/03 02:24:25;;;;;;;3.38;1.90;;;16.70;99.90;;;;;;5094267;28;20054;-72
2023/10/03 02:26:51;;;;;;;3.20;2.58;;;16.80;99.90;;;;;;5093740;28;20050;-72
2023/10/03 02:29:17;;;;;;;2.60;1.60;;;16.90;99.90;;;;;;5094096;28;20040;-74
2023/10/03 02:31:43;;;;;;;0.97;0.87;;;16.80;99.90;;;;;;5094047;28;20482;-74
2023/10/03 02:34:09;;;;;;;1.80;1.25;;;16.90;99.90;;;;;;5093991;28;20081;-74
2023/10/03 02:36:35;;;;;;;1.40;1.13;;;16.90;99.90;;;;;;5093869;28;20418;-73
2023/10/03 02:39:00;;;;;;;0.60;0.60;;;16.90;99.90;;;;;;5093939;28;20039;-73
2023/10/03 02:41:28;;;;;;;1.27;0.83;;;16.90;99.90;;;;;;5092918;28;20075;-73
2023/10/03 02:43:55;;;;;;;5.38;1.20;;;16.90;99.90;;;;;;5093908;28;20040;-73
2023/10/03 02:46:20;;;;;;;0.82;0.80;;;16.90;99.90;;;;;;5093894;28;20081;-73
2023/10/03 02:48:46;;;;;;;1.93;1.30;;;16.90;99.90;;;;;;5094160;28;20134;-73
2023/10/03 02:51:14;;;;;;;1.40;1.30;;;16.90;99.90;;;;;;5093841;28;20055;-73
2023/10/03 02:53:40;;;;;;;1.13;1.00;;;16.90;99.90;;;;;;5093960;28;20040;-73
2023/10/03 02:56:07;;;;;;;1.33;1.23;;;16.90;99.90;;;;;;5093626;28;20501;-73
2023/10/03 02:58:33;;;;;;;0.95;0.85;;;16.90;99.90;;;;;;5095345;28;20119;-73
2023/10/03 03:00:58;;;;;;;2.10;1.40;;;16.90;99.90;;;;;;5097639;28;20475;-73
2023/10/03 03:03:32;;;;;;;2.17;1.77;;;16.90;99.90;;;;;;5097876;28;20089;-74
2023/10/03 03:05:59;;;;;;;1.40;1.13;;;16.80;99.90;;;;;;5097870;28;20498;-72
2023/10/03 03:08:28;;;;;;;1.85;1.60;;;16.80;99.90;;;;;;5097995;28;20421;-73
2023/10/03 03:10:58;;;;;;;0.73;0.68;;;16.80;99.90;;;;;;5097656;28;20043;-73
2023/10/03 03:13:31;;;;;;;2.80;0.90;;;16.80;99.90;;;;;;5098219;28;20040;-73
2023/10/03 03:16:03;;;;;;;0.63;0.63;;;16.80;99.90;;;;;;5097630;28;20043;-73
2023/10/03 03:18:31;;;;;;;0.98;0.90;;;16.80;99.90;;;;;;5097895;28;20036;-73
2023/10/03 03:20:57;;;;;;;2.75;0.98;;;16.90;99.90;;;;;;5097545;28;20054;-73
2023/10/03 03:23:36;;;;;;;1.02;0.93;;;16.90;99.90;;;;;;5097571;28;20112;-74
2023/10/03 03:26:12;;;;;;;1.48;1.35;;;16.90;99.90;;;;;;5097343;28;20055;-73
2023/10/03 03:28:44;;;;;;;2.13;1.95;;;16.90;99.90;;;;;;5097763;28;20051;-72
2023/10/03 03:31:22;;;;;;;2.35;0.70;;;16.90;99.90;;;;;;5097416;28;20040;-73
2023/10/03 03:33:53;;;;;;;1.27;0.70;;;16.90;99.90;;;;;;5097350;28;20070;-73
2023/10/03 03:36:20;;;;;;;0.70;0.70;;;17.00;99.90;;;;;;5097213;28;20503;-73
2023/10/03 03:38:47;;;;;;;2.38;1.75;;;17.00;99.90;;;;;;5097143;28;20082;-73
2023/10/03 03:41:14;;;;;;;1.58;1.17;;;17.00;99.90;;;;;;5097181;28;20472;-73
2023/10/03 03:43:40;;;;;;;1.02;0.93;;;17.00;99.90;;;;;;5097370;28;20436;-73
2023/10/03 03:46:05;;;;;;;1.33;1.13;;;17.10;99.90;;;;;;5097111;28;20051;-73
2023/10/03 03:48:34;;;;;;;1.37;1.03;;;17.10;99.90;;;;;;5097037;28;20036;-75
2023/10/03 03:51:00;;;;;;;1.00;0.90;;;17.10;99.90;;;;;;5097195;28;20467;-74
2023/10/03 03:53:26;;;;;;;1.00;0.70;;;17.10;99.90;;;;;;5097005;28;20044;-73
2023/10/03 03:55:51;;;;;;;2.93;0.93;;;17.20;99.90;;;;;;5097201;28;20048;-74
2023/10/03 03:58:18;;;;;;;1.63;0.93;;;17.20;99.90;;;;;;5096821;28;20058;-75
2023/10/03 04:00:51;;;;;;;1.20;0.75;;;17.30;99.90;;;;;;5096828;28;20051;-74
2023/10/03 04:03:23;;;;;;;2.15;1.23;;;17.40;99.90;;;;;;5096892;28;20052;-74
2023/10/03 04:05:49;;;;;;;1.30;1.00;;;17.40;99.90;;;;;;5097176;28;20047;-74
2023/10/03 04:08:18;;;;;;;2.20;1.27;;;17.50;99.90;;;;;;5096485;28;20036;-74
2023/10/03 04:10:44;;;;;;;1.17;1.08;;;17.50;99.90;;;;;;5096390;28;20063;-74
2023/10/03 04:13:15;;;;;;;3.17;1.13;;;17.60;99.90;;;;;;5096394;28;20069;-74
2023/10/03 04:15:42;;;;;;;1.05;0.90;;;17.70;99.90;;;;;;5096352;28;20388;-74
2023/10/03 04:18:09;;;;;;;1.55;1.45;;;17.60;99.90;;;;;;5096338;28;20036;-75
2023/10/03 04:20:35;;;;;;;1.13;0.82;;;17.70;99.90;;;;;;5096577;28;20468;-73
2023/10/03 04:23:03;;;;;;;1.17;1.05;;;17.70;99.90;;;;;;5096473;28;20497;-75
2023/10/03 04:25:32;;;;;;;1.17;1.08;;;17.70;99.90;;;;;;5096384;28;20051;-74
2023/10/03 04:27:57;;;;;;;2.50;1.15;;;17.60;99.90;;;;;;5096321;28;20040;-75
2023/10/03 04:30:25;;;;;;;1.47;1.27;;;17.70;99.90;;;;;;5097057;28;20047;-75
2023/10/03 04:32:53;;;;;;;2.35;1.20;;;17.70;99.90;;;;;;5096250;28;20044;-74
2023/10/03 04:35:19;;;;;;;2.58;1.50;;;17.70;99.90;;;;;;5096198;28;20040;-72
2023/10/03 04:37:46;;;;;;;1.80;1.33;;;17.70;99.90;;;;;;5096063;28;20046;-75
2023/10/03 04:40:28;;;;;;;;;;;17.70;99.90;;;;;;5096543;28;20044;-75
2023/10/03 04:42:57;;;;;;;3.90;0.90;;;17.70;99.90;;;;;;5096068;28;19919;-74
2023/10/03 04:45:23;;;;;;;2.22;1.83;;;17.70;99.90;;;;;;5095981;28;20036;-74
2023/10/03 04:47:49;;;;;;;1.35;1.00;;;17.70;99.90;;;;;;5096041;28;20036;-72
2023/10/03 04:50:19;;;;;;;3.80;1.27;;;17.70;99.90;;;;;;5096131;28;20048;-71
2023/10/03 04:52:48;;;;;;;0.88;0.88;;;17.70;99.90;;;;;;5095849;28;20081;-73
2023/10/03 04:55:23;;;;;;;0.68;0.65;;;17.80;99.90;;;;;;5095843;28;20420;-72
2023/10/03 04:57:53;;;;;;;1.08;0.98;;;17.80;99.90;;;;;;5096146;28;20052;-72
2023/10/03 05:00:20;;;;;;;1.50;1.40;;;17.70;99.90;;;;;;5095966;28;20048;-72
2023/10/03 05:02:51;;;;;;;0.65;0.65;;;17.70;99.90;;;;;;5095928;28;20028;-73
2023/10/03 05:05:18;;;;;;;1.80;1.23;;;17.80;99.90;;;;;;5095635;28;20123;-73
2023/10/03 05:07:45;;;;;;;3.42;1.20;;;17.80;99.90;;;;;;5095491;28;20052;-73
2023/10/03 05:10:12;;;;;;;1.90;1.23;;;17.80;99.90;;;;;;5095438;28;20056;-73
2023/10/03 05:12:38;;;;;;;0.80;0.65;;;17.70;99.90;;;;;;5095437;28;20040;-79
2023/10/03 05:15:07;;;;;;;1.65;1.05;;;17.80;99.90;;;;;;5095365;28;20425;-72
2023/10/03 05:17:35;;;;;;;2.17;2.05;;;17.80;99.90;;;;;;5094609;28;20052;-74
2023/10/03 05:20:02;;;;;;;1.10;1.00;;;17.80;99.90;;;;;;5095380;28;20052;-72
2023/10/03 05:22:34;;;;;;;1.40;1.13;;;17.80;99.90;;;;;;5094597;28;20436;-72
2023/10/03 05:25:01;;;;;;;1.00;0.82;;;17.90;99.90;;;;;;5095992;28;20104;-71
2023/10/03 05:27:29;;;;;;;3.53;0.98;;;18.00;99.90;;;;;;5095209;28;20491;-74
2023/10/03 05:30:05;;;;;;;2.25;1.35;;;18.00;99.90;;;;;;5095173;28;20097;-75
2023/10/03 05:32:31;;;;;;;1.80;1.40;;;18.00;99.90;;;;;;5095030;28;20059;-76
2023/10/03 05:34:58;;;;;;;2.92;1.38;;;18.10;99.90;;;;;;5094935;28;20048;-74
2023/10/03 05:37:25;;;;;;;1.58;1.27;;;18.10;99.90;;;;;;5095482;28;20036;-72
2023/10/03 05:39:51;;;;;;;1.48;0.73;;;18.20;99.90;;;;;;5094990;28;20051;-73
2023/10/03 05:42:19;;;;;;;0.90;0.90;;;18.20;99.90;;;;;;5093851;28;20429;-73
2023/10/03 05:44:46;;;;;;;0.80;0.73;;;18.20;99.90;;;;;;5094830;28;20043;-73
2023/10/03 05:47:12;;;;;;;0.77;0.75;;;18.30;99.90;;;;;;5094771;28;20046;-72
2023/10/03 05:49:38;;;;;;;1.15;1.05;;;18.30;99.90;;;;;;5094764;28;20052;-74
2023/10/03 05:52:06;;;;;;;1.00;0.90;;;18.30;99.90;;;;;;5094743;28;20113;-74
2023/10/03 05:54:32;;;;;;;1.40;1.08;;;18.30;99.90;;;;;;5095064;28;20375;-73
2023/10/03 05:56:58;;;;;;;1.02;0.95;;;18.40;99.90;;;;;;5094899;28;20094;-75
2023/10/03 05:59:26;;;;;;;1.20;0.93;;;18.40;99.90;;;;;;5094598;28;20402;-75
2023/10/03 06:01:52;;;;;;;2.67;0.63;;;18.50;99.90;;;;;;5094541;28;20472;-75
2023/10/03 06:04:17;;;;;;;1.13;1.00;;;18.50;99.90;;;;;;5094467;28;20043;-71
2023/10/03 06:06:46;;;;;;;2.73;1.20;;;18.50;99.90;;;;;;5094120;28;20043;-70
2023/10/03 06:09:12;;;;;;;1.33;0.85;;;18.50;99.90;;;;;;5093228;28;20051;-70
2023/10/03 06:11:38;;;;;;;1.90;0.70;;;18.60;99.90;;;;;;5094313;28;20036;-72
2023/10/03 06:14:04;;;;;;;1.17;1.08;;;18.60;99.90;;;;;;5094374;28;20416;-77
2023/10/03 06:16:30;;;;;;;0.85;0.77;;;18.60;99.90;;;;;;5094157;28;20039;-78
2023/10/03 06:18:57;;;;;;;0.83;0.83;;;18.60;99.90;;;;;;5094176;28;20047;-78
2023/10/03 06:21:23;;;;;;;0.70;0.70;;;18.60;99.90;;;;;;5093727;28;20271;-77
2023/10/03 06:23:50;;;;;;;0.55;0.55;;;18.70;99.90;;;;;;5092467;28;20043;-77
2023/10/03 06:26:18;;;;;;;1.90;1.17;;;18.60;99.90;;;;;;5092995;28;20043;-76
2023/10/03 06:28:51;;;;;;;0.75;0.70;;;18.60;99.90;;;;;;5093770;28;20044;-77
2023/10/03 06:31:21;;;;;;;0.52;0.52;;;18.60;99.90;;;;;;5094180;28;20047;-76
2023/10/03 06:33:47;;;;;;;0.75;0.75;;;18.60;99.90;;;;;;5094028;28;20051;-78
2023/10/03 06:36:13;;;;;;;1.60;0.88;;;18.70;99.90;;;;;;5093986;28;20040;-77
2023/10/03 06:38:41;;;;;;;0.57;0.47;;;18.60;99.90;;;;;;5094240;28;20135;-78
2023/10/03 06:41:07;;;;;;;2.13;0.95;;;18.70;99.90;;;;;;5093908;28;20052;-77
2023/10/03 06:43:33;;;;;;;2.03;1.07;;;18.60;99.90;;;;;;5093923;28;20070;-76
2023/10/03 06:45:59;;;;;;;0.50;0.50;;;18.60;99.90;;;;;;5093876;28;20122;-75
2023/10/03 06:48:25;;;;;;;0.30;0.30;;;18.60;99.90;;;;;;5093607;28;20438;-75
2023/10/03 06:50:51;;;;;;;0.77;0.77;;;18.60;99.90;;;;;;5094202;28;20115;-76
2023/10/03 06:53:18;;;;;;;0.88;0.70;;;18.60;99.90;;;;;;5093784;28;20040;-75
2023/10/03 06:55:48;;;;;;;0.93;0.60;;;18.60;99.90;;;;;;5094050;28;20051;-74
2023/10/03 06:58:14;;;;;;;0.50;0.50;;;18.60;99.90;;;;;;5093722;28;20075;-75
2023/10/03 07:00:40;;;;;;;0.30;0.30;;;18.60;99.90;;;;;;5093604;28;20071;-76
2023/10/03 07:03:05;;;;;;;0.50;0.50;;;18.60;99.90;;;;;;5093768;28;20036;-73
2023/10/03 07:05:33;;;;;;;0.40;0.40;;;18.60;99.90;;;;;;5094131;28;20421;-74
2023/10/03 07:07:59;;;;;;;1.55;1.23;;;18.60;99.90;;;;;;5093567;28;20130;-74
2023/10/03 07:10:25;;;;;;;0.68;0.52;;;18.60;99.90;;;;;;5093719;28;20040;-73
2023/10/03 07:12:51;;;;;;;0.23;0.23;;;18.60;99.90;;;;;;5093616;28;20468;-73
2023/10/03 07:15:17;;;;;;;0.43;0.43;;;18.60;99.90;;;;;;5093531;28;20039;-74
2023/10/03 07:17:43;;;;;;;0.40;0.40;;;18.60;99.90;;;;;;5093271;28;20042;-73
2023/10/03 07:20:10;;;;;;;0.60;0.43;;;18.60;99.90;;;;;;5093431;28;20123;-74
2023/10/03 07:22:37;;;;;;;13.07;1.15;;;18.60;99.90;;;;;;5093531;28;20040;-74
2023/10/03 07:25:06;;;;;;;0.32;0.32;;;18.60;99.90;;;;;;5093401;28;20042;-73
2023/10/03 07:27:33;;;;;;;0.55;0.40;;;18.90;99.90;;;;;;5093398;28;20075;-73
2023/10/03 07:29:59;;;;;;;0.40;0.40;;;18.70;99.90;;;;;;5093315;28;20468;-74
2023/10/03 07:32:24;;;;;;;0.63;0.60;;;18.70;99.90;;;;;;5093440;28;20092;-74
2023/10/03 07:34:50;;;;;;;0.37;0.37;;;18.70;99.90;;;;;;5093399;28;20059;-73
2023/10/03 07:37:17;;;;;;;0.40;0.40;;;18.60;99.90;;;;;;5093180;28;20032;-74
2023/10/03 07:39:43;;;;;;;0.30;0.30;;;18.70;99.90;;;;;;5093339;28;20180;-73
2023/10/03 07:42:11;;;;;;;0.57;0.50;;;18.70;99.90;;;;;;5093001;28;20079;-79
2023/10/03 07:44:37;;;;;;;0.75;0.75;;;18.80;99.90;;;;;;5094159;28;20122;-75
2023/10/03 07:47:03;;;;;;;0.53;0.53;;;18.80;99.90;;;;;;5097145;28;20186;-75
2023/10/03 07:49:31;;;;;;;0.38;0.38;;;18.80;99.90;;;;;;5096994;28;20043;-76
2023/10/03 07:51:59;;;;;;;0.95;0.75;;;18.80;99.90;;;;;;5096694;28;20495;-72
2023/10/03 07:54:28;;;;;;;0.22;0.22;;;18.70;99.90;;;;;;5096902;28;20086;-76
2023/10/03 07:56:53;;;;;;;0.88;0.47;;;18.70;99.90;;;;;;5096877;28;20414;-75
2023/10/03 07:59:25;;;;;;;0.40;0.40;;;18.70;99.90;;;;;;5096870;28;20093;-75
2023/10/03 08:01:51;;;;;;;1.95;0.85;;;18.60;99.90;;;;;;5096862;28;20040;-75
2023/10/03 08:04:17;;;;;;;0.30;0.30;;;18.50;99.90;;;;;;5096665;28;20040;-76
2023/10/03 08:06:43;;;;;;;0.37;0.37;;;18.50;99.90;;;;;;5096745;28;20047;-76
2023/10/03 08:09:08;;;;;;;0.30;0.30;;;18.50;99.90;;;;;;5096404;28;20052;-72
2023/10/03 08:11:35;;;;;;;0.87;0.43;;;18.50;99.90;;;;;;5096690;28;20082;-72
2023/10/03 08:14:13;;;;;;;0.30;0.30;;;18.50;99.90;;;;;;5096498;28;20435;-72
2023/10/03 08:16:46;;;;;;;3.70;1.38;;;18.40;99.90;;;;;;5096481;28;20057;-73
2023/10/03 08:19:24;;;;;;;0.95;0.63;;;18.40;99.90;;;;;;5096527;28;20483;-74
2023/10/03 08:21:52;;;;;;;0.45;0.45;;;18.40;99.90;;;;;;5096577;28;20044;-73
2023/10/03 08:24:19;;;;;;;0.30;0.30;;;18.40;99.90;;;;;;5096437;28;20047;-73
2023/10/03 08:26:50;;;;;;;;;;;18.40;99.90;;;;;;5096692;28;20471;-72
2023/10/03 08:29:22;;;;;;;0.38;0.35;;;18.40;99.90;;;;;;5096701;28;19959;-74
2023/10/03 08:31:49;;;;;;;0.40;0.40;;;18.40;99.90;;;;;;5096462;28;20387;-74
2023/10/03 08:34:17;;;;;;;0.57;0.40;;;18.40;99.90;;;;;;5096205;28;20437;-71
2023/10/03 08:36:42;;;;;;;0.50;0.50;;;18.30;99.90;;;;;;5096061;28;20032;-71
2023/10/03 08:39:14;;;;;;;4.90;1.17;;;18.30;99.90;;;;;;5096064;28;20036;-74
2023/10/03 08:41:47;;;;;;;0.30;0.30;;;18.20;99.90;;;;;;5096105;28;20044;-72
2023/10/03 08:44:13;;;;;;;0.30;0.30;;;18.20;99.90;;;;;;5096367;28;20048;-73
2023/10/03 08:46:47;;;;;;;0.60;0.60;;;18.10;99.90;;;;;;5095842;28;20055;-73
2023/10/03 08:49:17;;;;;;;0.30;0.30;;;18.00;99.90;;;;;;5095706;28;20055;-74
2023/10/03 08:51:46;;;;;;;0.30;0.30;;;17.90;99.90;;;;;;5095973;28;20043;-74
2023/10/03 08:54:13;;;;;;;0.20;0.20;;;17.90;99.90;;;;;;5095868;28;20047;-73
2023/10/03 08:56:41;;;;;;;0.40;0.40;;;17.80;99.90;;;;;;5094589;28;20036;-73
2023/10/03 08:59:09;;;;;;;0.40;0.40;;;17.80;99.90;;;;;;5095918;28;20048;-73
2023/10/03 09:01:43;;;;;;;0.52;0.52;;;17.90;99.90;;;;;;5095759;28;20040;-73
2023/10/03 09:04:18;;;;;;;0.32;0.32;;;17.90;99.90;;;;;;5095376;28;20036;-75
2023/10/03 09:06:45;;;;;;;0.52;0.50;;;17.90;99.90;;;;;;5096051;28;20367;-74
2023/10/03 09:09:16;;;;;;;0.75;0.60;;;18.00;99.90;;;;;;5096268;28;20048;-73
2023/10/03 09:11:51;;;;;;;0.43;0.40;;;17.80;99.90;;;;;;5095593;28;20040;-73
2023/10/03 09:14:22;;;;;;;0.50;0.50;;;17.80;99.90;;;;;;5095590;28;20036;-73
2023/10/03 09:16:52;;;;;;;0.28;0.28;;;17.80;99.90;;;;;;5095297;28;20040;-70
2023/10/03 09:19:23;;;;;;;0.30;0.30;;;17.80;99.90;;;;;;5094187;28;20069;-69
2023/10/03 09:21:53;;;;;;;0.30;0.30;;;17.90;99.90;;;;;;5093497;28;20127;-70
2023/10/03 09:24:21;;;;;;;0.40;0.40;;;18.00;99.90;;;;;;5093737;28;20044;-70
2023/10/03 09:26:54;;;;;;;0.30;0.30;;;18.00;99.90;;;;;;5094368;28;20468;-69
2023/10/03 09:29:29;;;;;;;0.30;0.30;;;18.00;99.90;;;;;;5094213;28;20079;-69
2023/10/03 09:32:07;;;;;;;0.32;0.32;;;18.00;99.90;;;;;;5094497;28;20071;-69
2023/10/03 09:34:34;;;;;;;0.30;0.30;;;17.90;99.90;;;;;;5094807;28;20044;-70
2023/10/03 09:37:02;;;;;;;;;;;17.90;99.90;;;;;;5095329;28;20040;-69
2023/10/03 09:39:31;;;;;;;0.40;0.40;;;17.80;99.90;;;;;;5094980;28;20470;-70
2023/10/03 09:41:59;;;;;;;0.32;0.30;;;17.80;99.90;;;;;;5094872;28;20044;-69
2023/10/03 09:44:31;;;;;;;0.20;0.20;;;17.80;99.90;;;;;;5094890;28;20051;-69
2023/10/03 09:47:03;;;;;;;0.30;0.30;;;17.80;99.90;;;;;;5094801;28;20083;-69
2023/10/03 09:49:38;;;;;;;0.30;0.30;;;17.90;99.90;;;;;;5094394;28;20483;-71
2023/10/03 09:52:09;;;;;;;0.30;0.30;;;18.00;99.90;;;;;;5094498;28;20494;-71
2023/10/03 09:54:36;;;;;;;0.30;0.30;;;18.00;99.90;;;;;;5094802;28;20377;-70
2023/10/03 09:57:15;;;;;;;0.20;0.20;;;18.00;99.90;;;;;;5094605;28;20445;-75
2023/10/03 09:59:48;;;;;;;0.30;0.30;;;17.90;99.90;;;;;;5094648;28;20406;-75
2023/10/03 10:02:30;;;;;;;0.50;0.50;;;17.70;99.90;;;;;;5093170;28;20429;-75
2023/10/03 10:05:01;;;;;;;0.20;0.20;;;17.60;99.90;;;;;;5094517;28;20059;-77
2023/10/03 10:07:50;;;;;;;0.30;0.30;;;17.50;99.90;;;;;;5092658;28;20085;-76
2023/10/03 10:10:19;;;;;;;0.30;0.30;;;17.40;99.90;;;;;;5094167;28;20471;-75
2023/10/03 10:13:20;;;;;;;0.20;0.20;;;17.40;99.90;;;;;;5094452;28;20101;-75
2023/10/03 10:16:07;;;;;;;0.20;0.20;;;17.30;99.90;;;;;;5094750;28;20085;-75
2023/10/03 10:18:45;;;;;;;0.20;0.20;;;17.30;99.90;;;;;;5094561;28;20036;-76
2023/10/03 10:21:37;;;;;;;0.20;0.20;;;17.20;99.90;;;;;;5094197;28;20044;-75
2023/10/03 10:24:20;;;;;;;0.40;0.40;;;17.20;99.90;;;;;;5094022;28;20032;-78
2023/10/03 10:26:52;;;;;;;0.28;0.28;;;17.20;99.90;;;;;;5093346;28;20063;-75
2023/10/03 10:29:24;;;;;;;0.20;0.20;;;17.10;99.90;;;;;;5094260;28;20036;-79
2023/10/03 10:31:59;;;;;;;0.40;0.40;;;17.00;99.90;;;;;;5093184;28;20052;-78
2023/10/03 10:34:32;;;;;;;0.20;0.20;;;17.00;99.90;;;;;;5092948;28;20040;-81
2023/10/03 10:37:15;;;;;;;0.20;0.20;;;17.00;99.90;;;;;;5094008;28;20563;-77
2023/10/03 10:40:10;;;;;;;0.40;0.40;;;17.00;99.90;;;;;;5094226;28;20040;-81
2023/10/03 10:42:55;;;;;;;0.30;0.30;;;17.10;99.90;;;;;;5093990;28;20036;-74
2023/10/03 10:45:21;;;;;;;0.30;0.30;;;17.10;99.90;;;;;;5094177;28;20047;-73
2023/10/03 10:47:50;;;;;;;0.20;0.20;;;17.10;99.90;;;;;;5093670;28;20036;-74
2023/10/03 10:50:17;;;;;;;0.20;0.20;;;17.10;99.90;;;;;;5093885;28;20048;-73
2023/10/03 10:53:02;;;;;;;0.30;0.30;;;17.10;99.90;;;;;;5093710;28;20046;-74
2023/10/03 10:55:28;;;;;;;0.30;0.30;;;17.10;99.90;;;;;;5094010;28;20032;-72
2023/10/03 10:58:09;;;;;;;0.20;0.20;;;17.10;99.90;;;;;;5093655;28;20063;-72
2023/10/03 11:00:36;;;;;;;0.22;0.22;;;17.20;99.90;;;;;;5093660;28;20085;-72
2023/10/03 11:03:03;;;;;;;0.20;0.20;;;17.20;99.90;;;;;;5092565;28;20493;-74
2023/10/03 11:05:48;;;;;;;1.33;0.73;;;17.20;99.90;;;;;;5093356;28;20039;-76
2023/10/03 11:08:14;;;;;;;0.30;0.30;;;17.20;99.90;;;;;;5093606;28;20135;-76
2023/10/03 11:10:54;;;;;;;0.30;0.30;;;17.30;99.90;;;;;;5093860;28;20051;-75
2023/10/03 11:13:23;;;;;;;0.20;0.20;;;17.30;99.90;;;;;;5093712;28;20079;-74
2023/10/03 11:15:53;;;;;;;0.30;0.30;;;17.30;99.90;;;;;;5093565;28;20042;-76
2023/10/03 11:18:33;;;;;;;0.30;0.30;;;17.40;99.90;;;;;;5092465;28;20086;-77
2023/10/03 11:21:02;;;;;;;0.52;0.52;;;17.40;99.90;;;;;;5097317;28;20040;-74
2023/10/03 11:23:28;;;;;;;1.30;0.30;;;17.50;99.90;;;;;;5097939;28;20051;-75
2023/10/03 11:25:58;;;;;;;0.40;0.40;;;17.50;99.90;;;;;;5097606;28;20130;-76
2023/10/03 11:28:32;;;;;;;0.30;0.30;;;17.50;99.90;;;;;;5097259;28;20502;-75
2023/10/03 11:31:05;;;;;;;0.30;0.30;;;17.50;99.90;;;;;;5097409;28;20089;-75
2023/10/03 11:33:44;;;;;;;0.28;0.28;;;17.60;99.90;;;;;;5097253;28;20123;-75
2023/10/03 11:36:11;;;;;;;0.30;0.30;;;17.60;99.90;;;;;;5097367;28;20052;-76
2023/10/03 11:38:48;;;;;;;0.20;0.20;;;17.70;99.90;;;;;;5097285;28;20039;-75
2023/10/03 11:41:28;;;;;;;0.30;0.30;;;17.70;99.90;;;;;;5097300;28;20040;-75
2023/10/03 11:43:54;;;;;;;0.40;0.40;;;17.80;99.90;;;;;;5097647;28;20036;-79
2023/10/03 11:46:20;;;;;;;0.40;0.40;;;17.80;99.90;;;;;;5097253;28;20036;-74
2023/10/03 11:48:45;;;;;;;0.30;0.30;;;17.70;99.90;;;;;;5097266;28;20040;-74
2023/10/03 11:51:13;;;;;;;0.37;0.30;;;17.60;99.90;;;;;;5097057;28;20414;-75
2023/10/03 11:53:38;;;;;;;0.30;0.30;;;17.50;99.90;;;;;;5096048;28;20486;-75
2023/10/03 11:56:04;;;;;;;0.30;0.30;;;17.50;99.90;;;;;;5096945;28;20040;-74
2023/10/03 11:58:30;;;;;;;0.40;0.40;;;17.30;99.90;;;;;;5096870;28;20039;-74
2023/10/03 12:00:57;;;;;;;0.30;0.30;;;17.20;99.90;;;;;;5096820;28;20448;-74
2023/10/03 12:03:22;;;;;;;0.30;0.30;;;17.10;99.90;;;;;;5096984;28;20046;-74
2023/10/03 12:05:52;;;;;;;0.30;0.30;;;17.00;99.90;;;;;;5096827;28;20047;-73
2023/10/03 12:08:17;;;;;;;0.20;0.20;;;17.00;99.90;;;;;;5096918;28;20088;-74
2023/10/03 12:10:43;;;;;;;0.30;0.30;;;16.90;99.90;;;;;;5096782;28;20471;-75
2023/10/03 12:13:09;;;;;;;0.30;0.30;;;16.80;99.90;;;;;;5096659;28;20040;-75
2023/10/03 12:15:41;;;;;;;0.30;0.30;;;16.70;99.90;;;;;;5096657;28;20123;-76
2023/10/03 12:18:06;;;;;;;0.30;0.30;;;16.60;99.90;;;;;;5096720;28;20352;-74
2023/10/03 12:20:33;;;;;;;0.30;0.30;;;16.50;99.90;;;;;;5096505;28;20039;-77
2023/10/03 12:22:58;;;;;;;0.30;0.30;;;16.30;99.90;;;;;;5096547;28;20040;-76
2023/10/03 12:25:26;;;;;;;0.30;0.30;;;16.10;99.90;;;;;;5096839;28;20051;-76
2023/10/03 12:27:52;;;;;;;0.30;0.30;;;16.10;99.90;;;;;;5096485;28;20044;-77
2023/10/03 12:30:18;;;;;;;0.30;0.30;;;16.00;99.90;;;;;;5096190;28;20032;-79
2023/10/03 12:32:46;;;;;;;0.30;0.30;;;15.90;99.90;;;;;;5095996;28;20173;-74
2023/10/03 12:35:12;;;;;;;0.40;0.40;;;15.80;99.90;;;;;;5095980;28;20371;-76
2023/10/03 12:37:39;;;;;;;0.35;0.35;;;15.80;99.90;;;;;;5096170;28;20121;-81
2023/10/03 12:40:13;;;;;;;0.30;0.30;;;15.70;99.90;;;;;;5096225;28;20036;-81
2023/10/03 12:42:50;;;;;;;0.20;0.20;;;15.80;99.90;;;;;;5096230;28;20032;-82
2023/10/03 12:45:22;;;;;;;0.40;0.40;;;15.70;99.90;;;;;;5095810;28;20480;-82
2023/10/03 12:47:52;;;;;;;0.30;0.30;;;15.80;99.90;;;;;;5096052;28;20039;-86
2023/10/03 12:50:23;;;;;;;0.30;0.30;;;15.50;99.90;;;;;;5078412;28;20051;-85
2023/10/03 12:52:53;;;;;;;0.60;0.60;;;15.40;99.90;;;;;;5095773;28;20039;-86
2023/10/03 12:55:19;;;;;;;0.30;0.30;;;15.40;99.90;;;;;;5095924;28;20115;-85
2023/10/03 12:57:50;;;;;;;0.30;0.30;;;15.30;99.90;;;;;;5094871;28;20476;-85
2023/10/03 13:00:23;;;;;;;1.27;0.40;;;15.30;99.90;;;;;;5094855;28;20072;-85